createdAt,value
2023-06-30T00:01:02.617Z,100609.44
2023-06-30T00:03:33.179Z,100604.41
2023-06-30T00:06:03.573Z,100597.38
2023-06-30T00:08:33.903Z,100596.72
2023-06-30T00:11:06.844Z,100588.09
2023-06-30T00:13:37.173Z,100590.34
2023-06-30T00:16:07.875Z,100588.66
2023-06-30T00:18:38.181Z,100577.78
2023-06-30T00:21:08.510Z,100583.97
2023-06-30T00:23:38.949Z,100577.69
2023-06-30T00:26:11.846Z,100576.59
2023-06-30T00:28:42.124Z,100569.84
2023-06-30T00:31:12.479Z,100571.50
2023-06-30T00:33:42.830Z,100573.31
2023-06-30T00:36:13.097Z,100567.41
2023-06-30T00:38:43.398Z,100565.88
2023-06-30T00:41:16.372Z,100556.44
2023-06-30T00:43:46.664Z,100548.44
2023-06-30T00:46:20.389Z,100538.81
2023-06-30T00:48:51.004Z,100539.00
2023-06-30T00:51:21.532Z,100530.38
2023-06-30T00:53:51.980Z,100534.50
2023-06-30T00:56:24.953Z,100533.84
2023-06-30T00:58:55.386Z,100528.78
2023-06-30T01:01:35.000Z,100525.56
2023-06-30T01:04:15.117Z,100523.44
2023-06-30T01:06:56.340Z,100527.16
2023-06-30T01:09:33.547Z,100531.31
2023-06-30T01:12:07.741Z,100527.09
2023-06-30T01:14:39.391Z,100525.59
2023-06-30T01:17:10.667Z,100529.50
2023-06-30T01:19:46.383Z,100524.47
2023-06-30T01:22:28.393Z,100524.00
2023-06-30T01:25:04.127Z,100517.22
2023-06-30T01:27:37.614Z,100516.97
2023-06-30T01:30:10.349Z,100510.22
2023-06-30T01:32:41.316Z,100506.44
2023-06-30T01:35:12.458Z,100507.03
2023-06-30T01:37:42.879Z,100507.03
2023-06-30T01:40:15.560Z,100497.88
2023-06-30T01:42:49.696Z,100493.47
2023-06-30T01:45:20.624Z,100487.56
2023-06-30T01:47:51.479Z,100486.53
2023-06-30T01:50:23.422Z,100475.03
2023-06-30T01:52:54.025Z,100472.97
2023-06-30T01:55:24.429Z,100474.19
2023-06-30T01:57:57.671Z,100483.72
2023-06-30T02:00:28.070Z,100473.72
2023-06-30T02:02:58.502Z,100479.50
2023-06-30T02:05:28.844Z,100476.63
2023-06-30T02:07:59.118Z,100474.06
2023-06-30T02:10:29.398Z,100483.25
2023-06-30T02:13:02.590Z,100474.44
2023-06-30T02:15:32.948Z,100472.09
2023-06-30T02:18:04.526Z,100472.94
2023-06-30T02:20:34.851Z,100473.13
2023-06-30T02:23:05.196Z,100470.97
2023-06-30T02:25:35.506Z,100455.91
2023-06-30T02:28:08.897Z,100459.63
2023-06-30T02:30:39.207Z,100457.09
2023-06-30T02:33:09.496Z,100453.72
2023-06-30T02:35:39.831Z,100457.47
2023-06-30T02:38:10.220Z,100452.88
2023-06-30T02:40:40.568Z,100457.00
2023-06-30T02:43:13.442Z,100453.06
2023-06-30T02:45:43.962Z,100448.47
2023-06-30T02:48:14.561Z,100441.56
2023-06-30T02:50:45.412Z,100435.94
2023-06-30T02:53:15.665Z,100439.03
2023-06-30T02:55:46.339Z,100438.19
2023-06-30T02:58:19.464Z,100435.28
2023-06-30T03:00:50.787Z,100433.59
2023-06-30T03:03:21.535Z,100433.22
2023-06-30T03:05:52.198Z,100432.84
2023-06-30T03:08:22.443Z,100429.78
2023-06-30T03:10:53.076Z,100433.78
2023-06-30T03:13:25.957Z,100421.72
2023-06-30T03:15:56.262Z,100416.03
2023-06-30T03:18:26.890Z,100411.91
2023-06-30T03:20:57.189Z,100402.34
2023-06-30T03:23:27.522Z,100396.56
2023-06-30T03:25:57.834Z,100392.81
2023-06-30T03:28:30.723Z,100385.31
2023-06-30T03:31:01.141Z,100390.41
2023-06-30T03:33:31.474Z,100384.59
2023-06-30T03:36:01.829Z,100391.53
2023-06-30T03:38:32.109Z,100388.22
2023-06-30T03:41:02.470Z,100382.63
2023-06-30T03:43:35.424Z,100385.81
2023-06-30T03:46:05.825Z,100379.78
2023-06-30T03:48:36.143Z,100380.19
2023-06-30T03:51:07.759Z,100378.47
2023-06-30T03:53:38.063Z,100373.16
2023-06-30T03:56:09.397Z,100378.19
2023-06-30T03:58:42.298Z,100380.25
2023-06-30T04:01:12.922Z,100369.84
2023-06-30T04:03:43.358Z,100373.03
2023-06-30T04:06:14.203Z,100368.44
2023-06-30T04:08:45.533Z,100362.44
2023-06-30T04:11:15.863Z,100361.59
2023-06-30T04:13:48.787Z,100357.66
2023-06-30T04:16:19.120Z,100360.84
2023-06-30T04:18:49.428Z,100358.19
2023-06-30T04:21:19.772Z,100360.91
2023-06-30T04:23:50.033Z,100365.13
2023-06-30T04:26:20.610Z,100364.16
2023-06-30T04:28:53.528Z,100359.38
2023-06-30T04:31:23.930Z,100355.22
2023-06-30T04:33:54.274Z,100359.00
2023-06-30T04:36:24.566Z,100358.22
2023-06-30T04:38:54.886Z,100350.69
2023-06-30T04:41:26.902Z,100343.19
2023-06-30T04:44:00.961Z,100341.38
2023-06-30T04:46:32.282Z,100326.53
2023-06-30T04:49:05.881Z,100320.72
2023-06-30T04:51:37.162Z,100319.09
2023-06-30T04:54:07.631Z,100319.47
2023-06-30T04:56:37.935Z,100321.88
2023-06-30T04:59:10.873Z,100313.31
2023-06-30T05:01:41.845Z,100318.81
2023-06-30T05:04:12.175Z,100320.13
2023-06-30T05:06:42.471Z,100317.59
2023-06-30T05:09:12.768Z,100306.53
2023-06-30T05:11:43.085Z,100303.00
2023-06-30T05:14:15.948Z,100294.88
2023-06-30T05:16:46.366Z,100299.09
2023-06-30T05:19:16.808Z,100294.91
2023-06-30T05:21:47.161Z,100289.09
2023-06-30T05:24:17.510Z,100285.59
2023-06-30T05:26:47.833Z,100281.44
2023-06-30T05:29:20.730Z,100274.53
2023-06-30T05:31:51.299Z,100272.06
2023-06-30T05:34:21.695Z,100269.72
2023-06-30T05:36:51.984Z,100273.72
2023-06-30T05:39:22.262Z,100268.53
2023-06-30T05:41:52.576Z,100272.31
2023-06-30T05:44:25.551Z,100275.50
2023-06-30T05:46:56.099Z,100264.59
2023-06-30T05:49:26.464Z,100261.25
2023-06-30T05:51:57.063Z,100256.66
2023-06-30T05:54:27.374Z,100247.22
2023-06-30T05:56:57.659Z,100243.06
2023-06-30T05:59:31.875Z,100246.84
2023-06-30T06:02:02.200Z,100239.53
2023-06-30T06:04:32.700Z,100239.75
2023-06-30T06:07:06.738Z,100241.44
2023-06-30T06:09:37.398Z,100241.88
2023-06-30T06:12:09.333Z,100242.06
2023-06-30T06:14:42.609Z,100233.91
2023-06-30T06:17:12.887Z,100240.59
2023-06-30T06:19:43.155Z,100239.97
2023-06-30T06:22:13.515Z,100231.41
2023-06-30T06:24:43.824Z,100230.38
2023-06-30T06:27:14.176Z,100227.66
2023-06-30T06:29:47.140Z,100229.78
2023-06-30T06:32:20.450Z,100233.53
2023-06-30T06:34:50.893Z,100233.53
2023-06-30T06:37:21.274Z,100234.16
2023-06-30T06:39:51.549Z,100229.78
2023-06-30T06:42:21.854Z,100239.84
2023-06-30T06:44:55.075Z,100227.69
2023-06-30T06:48:10.290Z,100237.34
2023-06-30T06:50:40.621Z,100233.56
2023-06-30T06:53:11.065Z,100218.03
2023-06-30T06:55:41.367Z,100224.13
2023-06-30T06:58:11.641Z,100221.41
2023-06-30T07:00:44.703Z,100218.06
2023-06-30T07:03:15.067Z,100222.28
2023-06-30T07:05:46.373Z,100221.19
2023-06-30T07:08:20.307Z,100223.72
2023-06-30T07:10:52.095Z,100221.84
2023-06-30T07:13:24.328Z,100213.88
2023-06-30T07:15:57.251Z,100217.44
2023-06-30T07:18:27.784Z,100211.56
2023-06-30T07:20:58.467Z,100211.00
2023-06-30T07:23:28.740Z,100213.06
2023-06-30T07:25:59.007Z,100207.00
2023-06-30T07:28:29.288Z,100202.16
2023-06-30T07:31:02.212Z,100203.41
2023-06-30T07:33:32.520Z,100189.97
2023-06-30T07:36:02.789Z,100188.53
2023-06-30T07:38:33.150Z,100186.63
2023-06-30T07:41:03.461Z,100173.19
2023-06-30T07:43:34.172Z,100178.41
2023-06-30T07:46:07.134Z,100170.44
2023-06-30T07:48:37.536Z,100167.28
2023-06-30T07:51:09.756Z,100165.38
2023-06-30T07:53:41.230Z,100161.16
2023-06-30T07:56:11.686Z,100160.53
2023-06-30T07:58:42.100Z,100159.47
2023-06-30T08:01:15.029Z,100163.44
2023-06-30T08:03:45.566Z,100156.75
2023-06-30T08:06:16.234Z,100154.84
2023-06-30T08:08:46.638Z,100157.56
2023-06-30T08:11:16.934Z,100152.53
2023-06-30T08:13:47.279Z,100148.56
2023-06-30T08:16:20.255Z,100140.78
2023-06-30T08:18:52.023Z,100136.56
2023-06-30T08:21:22.979Z,100127.75
2023-06-30T08:23:53.828Z,100127.91
2023-06-30T08:26:24.184Z,100123.47
2023-06-30T08:28:54.855Z,100119.50
2023-06-30T08:31:28.011Z,100119.91
2023-06-30T08:33:58.326Z,100117.81
2023-06-30T08:36:30.633Z,100109.59
2023-06-30T08:39:02.069Z,100116.06
2023-06-30T08:41:32.491Z,100112.47
2023-06-30T08:44:04.341Z,100110.16
2023-06-30T08:46:37.991Z,100105.56
2023-06-30T08:49:09.558Z,100119.59
2023-06-30T08:51:40.914Z,100107.84
2023-06-30T08:54:12.890Z,100105.78
2023-06-30T08:56:43.963Z,100097.97
2023-06-30T08:59:14.363Z,100096.69
2023-06-30T09:01:48.684Z,100095.00
2023-06-30T09:04:19.845Z,100095.19
2023-06-30T09:06:51.621Z,100078.81
2023-06-30T09:09:29.966Z,100095.59
2023-06-30T09:12:01.801Z,100078.31
2023-06-30T09:14:35.428Z,100074.31
2023-06-30T09:17:09.982Z,100073.03
2023-06-30T09:19:40.277Z,100074.41
2023-06-30T09:22:52.213Z,100078.84
2023-06-30T09:25:03.553Z,100070.34
2023-06-30T09:27:38.820Z,100072.66
2023-06-30T09:30:11.527Z,100058.38
2023-06-30T09:32:46.770Z,100067.63
2023-06-30T09:35:19.420Z,100054.72
2023-06-30T09:37:49.718Z,100052.41
2023-06-30T09:40:21.616Z,100050.66
2023-06-30T09:42:56.914Z,100048.53
2023-06-30T09:45:27.212Z,100042.63
2023-06-30T09:48:00.307Z,100036.09
2023-06-30T09:50:31.541Z,100039.22
2023-06-30T09:53:02.360Z,100035.03
2023-06-30T09:55:32.914Z,100026.75
2023-06-30T09:58:03.205Z,100025.31
2023-06-30T10:00:36.780Z,100021.28
2023-06-30T10:03:11.809Z,100022.59
2023-06-30T10:05:42.713Z,100021.53
2023-06-30T10:08:14.506Z,100015.38
2023-06-30T10:10:46.479Z,100019.94
2023-06-30T10:13:19.525Z,100006.38
2023-06-30T10:15:50.131Z,100004.97
2023-06-30T10:18:24.759Z,99999.50
2023-06-30T10:20:55.213Z,100004.97
2023-06-30T10:23:28.547Z,99991.97
2023-06-30T10:25:59.569Z,100002.47
2023-06-30T10:28:30.169Z,99990.22
2023-06-30T10:31:00.773Z,99991.56
2023-06-30T10:33:33.955Z,99999.78
2023-06-30T10:36:05.067Z,99984.06
2023-06-30T10:38:35.557Z,99989.22
2023-06-30T10:41:21.227Z,99981.97
2023-06-30T10:44:09.991Z,99982.03
2023-06-30T10:46:55.226Z,99975.25
2023-06-30T10:49:36.984Z,99977.63
2023-06-30T10:52:11.966Z,99980.88
2023-06-30T10:54:44.677Z,99971.94
2023-06-30T10:57:16.616Z,99969.81
2023-06-30T10:59:48.705Z,99972.44
2023-06-30T11:02:27.514Z,99971.63
2023-06-30T11:05:22.420Z,99978.41
2023-06-30T11:07:54.232Z,99974.97
2023-06-30T11:10:40.074Z,99974.47
2023-06-30T11:13:11.385Z,99976.16
2023-06-30T11:15:53.248Z,99952.44
2023-06-30T11:18:26.235Z,99953.28
2023-06-30T11:21:07.695Z,99938.75
2023-06-30T11:23:40.721Z,99945.66
2023-06-30T11:26:18.947Z,99952.44
2023-06-30T11:28:52.261Z,99946.41
2023-06-30T11:31:22.619Z,99945.47
2023-06-30T11:33:53.600Z,99936.38
2023-06-30T11:36:26.559Z,99930.88
2023-06-30T11:38:56.847Z,99929.31
2023-06-30T11:41:28.043Z,99926.44
2023-06-30T11:43:59.569Z,99918.91
2023-06-30T11:46:37.483Z,99917.34
2023-06-30T11:49:08.164Z,99908.06
2023-06-30T11:51:41.134Z,99910.28
2023-06-30T11:54:11.543Z,99909.66
2023-06-30T11:56:43.700Z,99903.41
2023-06-30T11:59:14.190Z,99907.34
2023-06-30T12:01:44.494Z,99907.94
2023-06-30T12:04:39.623Z,99902.31
2023-06-30T12:07:12.595Z,99906.59
2023-06-30T12:09:44.811Z,99901.19
2023-06-30T12:12:15.594Z,99900.28
2023-06-30T12:14:46.333Z,99889.09
2023-06-30T12:17:16.615Z,99877.84
2023-06-30T12:19:49.261Z,99871.69
2023-06-30T12:22:31.535Z,99881.06
2023-06-30T12:25:03.728Z,99870.66
2023-06-30T12:27:36.789Z,99863.56
2023-06-30T12:30:08.307Z,99869.75
2023-06-30T12:32:43.124Z,99863.56
2023-06-30T12:35:13.818Z,99854.28
2023-06-30T12:37:49.668Z,99847.19
2023-06-30T12:40:21.121Z,99845.63
2023-06-30T12:42:51.610Z,99841.97
2023-06-30T12:45:21.959Z,99848.75
2023-06-30T12:47:52.472Z,99840.59
2023-06-30T12:50:23.232Z,99840.03
2023-06-30T12:52:56.128Z,99839.59
2023-06-30T12:55:28.083Z,99833.47
2023-06-30T12:57:58.776Z,99823.34
2023-06-30T13:00:29.474Z,99832.88
2023-06-30T13:03:00.538Z,99823.13
2023-06-30T13:05:30.980Z,99822.59
2023-06-30T13:08:03.868Z,99810.59
2023-06-30T13:10:34.628Z,99814.53
2023-06-30T13:13:04.913Z,99808.53
2023-06-30T13:15:35.213Z,99810.97
2023-06-30T13:18:05.540Z,99807.78
2023-06-30T13:20:35.885Z,99797.47
2023-06-30T13:23:17.189Z,99799.63
2023-06-30T13:25:50.668Z,99788.28
2023-06-30T13:28:20.994Z,99787.97
2023-06-30T13:30:51.325Z,99795.91
2023-06-30T13:33:23.009Z,99787.25
2023-06-30T13:35:53.431Z,99785.88
2023-06-30T13:38:26.638Z,99779.66
2023-06-30T13:40:57.236Z,99779.66
2023-06-30T13:43:27.505Z,99777.81
2023-06-30T13:45:58.546Z,99769.25
2023-06-30T13:48:28.856Z,99770.66
2023-06-30T13:50:59.170Z,99771.50
2023-06-30T13:53:32.106Z,99771.84
2023-06-30T13:56:02.710Z,99764.53
2023-06-30T13:58:33.829Z,99770.03
2023-06-30T14:01:04.418Z,99756.53
2023-06-30T14:03:36.884Z,99749.22
2023-06-30T14:06:07.754Z,99745.66
2023-06-30T14:08:41.019Z,99735.75
2023-06-30T14:11:11.401Z,99727.59
2023-06-30T14:13:42.024Z,99734.00
2023-06-30T14:16:12.438Z,99738.22
2023-06-30T14:18:42.855Z,99723.22
2023-06-30T14:21:13.168Z,99747.78
2023-06-30T14:23:46.029Z,99734.69
2023-06-30T14:26:16.513Z,99727.03
2023-06-30T14:28:47.033Z,99729.34
2023-06-30T14:31:17.404Z,99720.34
2023-06-30T14:33:47.820Z,99725.34
2023-06-30T14:36:18.343Z,99715.97
2023-06-30T14:38:51.249Z,99711.00
2023-06-30T14:41:21.714Z,99699.63
2023-06-30T14:43:52.034Z,99700.19
2023-06-30T14:46:22.415Z,99696.38
2023-06-30T14:48:53.044Z,99701.88
2023-06-30T14:51:23.774Z,99690.22
2023-06-30T14:53:56.690Z,99696.38
2023-06-30T14:56:26.982Z,99689.66
2023-06-30T14:58:57.251Z,99691.91
2023-06-30T15:01:27.782Z,99684.41
2023-06-30T15:03:58.126Z,99691.16
2023-06-30T15:06:28.456Z,99679.56
2023-06-30T15:09:01.350Z,99669.97
2023-06-30T15:11:31.654Z,99666.00
2023-06-30T15:14:01.948Z,99675.16
2023-06-30T15:16:32.344Z,99674.44
2023-06-30T15:19:03.443Z,99671.56
2023-06-30T15:21:33.844Z,99665.06
2023-06-30T15:24:07.101Z,99659.66
2023-06-30T15:26:37.412Z,99660.06
2023-06-30T15:29:07.722Z,99658.72
2023-06-30T15:31:38.010Z,99654.38
2023-06-30T15:34:08.316Z,99647.41
2023-06-30T15:36:38.650Z,99642.84
2023-06-30T15:39:11.813Z,99646.19
2023-06-30T15:41:42.301Z,99645.16
2023-06-30T15:44:12.621Z,99636.53
2023-06-30T15:46:42.973Z,99633.47
2023-06-30T15:49:13.733Z,99631.66
2023-06-30T15:51:44.008Z,99630.09
2023-06-30T15:54:16.930Z,99626.72
2023-06-30T15:56:47.241Z,99625.69
2023-06-30T15:59:17.682Z,99618.56
2023-06-30T16:01:48.178Z,99621.78
2023-06-30T16:04:18.560Z,99619.44
2023-06-30T16:06:49.014Z,99614.66
2023-06-30T16:09:22.281Z,99618.72
2023-06-30T16:11:52.588Z,99620.56
2023-06-30T16:14:22.915Z,99615.66
2023-06-30T16:16:53.191Z,99606.91
2023-06-30T16:19:23.820Z,99604.41
2023-06-30T16:21:54.105Z,99601.34
2023-06-30T16:24:26.987Z,99595.03
2023-06-30T16:26:57.426Z,99597.44
2023-06-30T16:29:27.726Z,99604.53
2023-06-30T16:31:58.025Z,99592.97
2023-06-30T16:34:28.399Z,99585.50
2023-06-30T16:36:58.764Z,99579.16
2023-06-30T16:39:31.653Z,99581.03
2023-06-30T16:42:02.005Z,99580.47
2023-06-30T16:44:32.517Z,99589.44
2023-06-30T16:47:03.064Z,99574.56
2023-06-30T16:49:33.958Z,99578.41
2023-06-30T16:52:04.240Z,99580.28
2023-06-30T16:54:37.151Z,99570.09
2023-06-30T16:57:08.581Z,99561.28
2023-06-30T16:59:38.957Z,99566.53
2023-06-30T17:02:10.239Z,99560.81
2023-06-30T17:04:40.905Z,99568.88
2023-06-30T17:07:13.676Z,99564.16
2023-06-30T17:09:46.551Z,99554.75
2023-06-30T17:12:18.042Z,99558.59
2023-06-30T17:14:48.349Z,99549.84
2023-06-30T17:17:18.753Z,99554.50
2023-06-30T17:19:49.034Z,99546.78
2023-06-30T17:22:19.607Z,99545.19
2023-06-30T17:24:55.959Z,99552.53
2023-06-30T17:27:26.563Z,99545.53
2023-06-30T17:29:56.818Z,99549.47
2023-06-30T17:32:27.231Z,99548.47
2023-06-30T17:34:57.544Z,99543.66
2023-06-30T17:37:27.839Z,99548.00
2023-06-30T17:40:00.723Z,99550.09
2023-06-30T17:42:31.020Z,99529.81
2023-06-30T17:45:01.345Z,99542.09
2023-06-30T17:47:31.699Z,99532.56
2023-06-30T17:50:02.150Z,99541.03
2023-06-30T17:52:32.478Z,99537.28
2023-06-30T17:55:05.400Z,99540.25
2023-06-30T17:57:35.712Z,99528.63
2023-06-30T18:00:06.941Z,99531.38
2023-06-30T18:02:37.396Z,99528.28
2023-06-30T18:05:08.494Z,99533.47
2023-06-30T18:07:38.865Z,99522.25
2023-06-30T18:10:15.247Z,99528.50
2023-06-30T18:12:46.163Z,99524.00
2023-06-30T18:15:16.488Z,99506.06
2023-06-30T18:17:46.816Z,99514.53
2023-06-30T18:20:17.786Z,99511.22
2023-06-30T18:22:48.324Z,99506.56
2023-06-30T18:25:21.226Z,99505.56
2023-06-30T18:27:51.509Z,99508.97
2023-06-30T18:30:21.948Z,99515.28
2023-06-30T18:32:52.290Z,99510.91
2023-06-30T18:35:22.894Z,99507.72
2023-06-30T18:37:53.255Z,99505.00
2023-06-30T18:40:26.203Z,99517.06
2023-06-30T18:42:56.471Z,99512.53
2023-06-30T18:45:26.800Z,99515.63
2023-06-30T18:47:57.246Z,99513.22
2023-06-30T18:50:27.542Z,99508.25
2023-06-30T18:52:58.023Z,99511.47
2023-06-30T18:55:30.932Z,99508.88
2023-06-30T18:58:01.238Z,99505.91
2023-06-30T19:00:31.506Z,99508.59
2023-06-30T19:03:02.043Z,99511.91
2023-06-30T19:05:32.569Z,99509.41
2023-06-30T19:08:02.935Z,99509.06
2023-06-30T19:10:35.809Z,99501.19
2023-06-30T19:13:06.139Z,99497.63
2023-06-30T19:15:36.483Z,99490.72
2023-06-30T19:18:07.080Z,99485.47
2023-06-30T19:20:37.358Z,99479.16
2023-06-30T19:23:07.706Z,99478.34
2023-06-30T19:25:40.620Z,99483.31
2023-06-30T19:28:10.872Z,99465.31
2023-06-30T19:30:41.204Z,99471.66
2023-06-30T19:33:11.511Z,99466.28
2023-06-30T19:35:42.440Z,99472.03
2023-06-30T19:38:13.616Z,99461.88
2023-06-30T19:40:46.752Z,99463.19
2023-06-30T19:43:17.040Z,99470.44
2023-06-30T19:45:47.516Z,99456.66
2023-06-30T19:48:18.893Z,99450.94
2023-06-30T19:50:49.792Z,99453.91
2023-06-30T19:53:20.541Z,99462.72
2023-06-30T19:55:53.425Z,99454.38
2023-06-30T19:58:23.736Z,99445.31
2023-06-30T20:00:54.811Z,99449.91
2023-06-30T20:03:25.441Z,99448.81
2023-06-30T20:05:56.120Z,99449.66
2023-06-30T20:08:26.475Z,99445.75
2023-06-30T20:10:59.405Z,99436.44
2023-06-30T20:13:29.740Z,99442.91
2023-06-30T20:16:00.003Z,99446.00
2023-06-30T20:18:30.777Z,99436.94
2023-06-30T20:21:01.776Z,99431.47
2023-06-30T20:23:32.398Z,99432.78
2023-06-30T20:26:05.352Z,99433.13
2023-06-30T20:28:35.710Z,99436.09
2023-06-30T20:31:06.059Z,99431.47
2023-06-30T20:33:36.506Z,99436.94
2023-06-30T20:36:07.673Z,99437.44
2023-06-30T20:38:37.977Z,99445.66
2023-06-30T20:41:11.015Z,99446.66
2023-06-30T20:43:41.539Z,99454.31
2023-06-30T20:46:11.855Z,99452.72
2023-06-30T20:48:42.135Z,99445.22
2023-06-30T20:51:12.468Z,99441.75
2023-06-30T20:53:42.813Z,99448.06
2023-06-30T20:56:15.636Z,99450.56
2023-06-30T20:58:46.019Z,99446.09
2023-06-30T21:01:16.310Z,99445.84
2023-06-30T21:03:46.714Z,99443.34
2023-06-30T21:06:18.400Z,99452.38
2023-06-30T21:08:49.331Z,99457.03
2023-06-30T21:11:22.274Z,99445.00
2023-06-30T21:13:52.614Z,99455.88
2023-06-30T21:16:22.958Z,99445.41
2023-06-30T21:18:53.307Z,99442.75
2023-06-30T21:21:23.714Z,99444.41
2023-06-30T21:23:54.073Z,99442.75
2023-06-30T21:26:27.121Z,99453.72
2023-06-30T21:28:57.472Z,99441.09
2023-06-30T21:31:27.872Z,99439.16
2023-06-30T21:33:58.268Z,99436.09
2023-06-30T21:36:28.577Z,99435.03
2023-06-30T21:38:58.976Z,99427.38
2023-06-30T21:41:32.169Z,99424.41
2023-06-30T21:44:02.494Z,99427.38
2023-06-30T21:46:32.784Z,99426.00
2023-06-30T21:49:03.249Z,99426.47
2023-06-30T21:51:33.628Z,99428.63
2023-06-30T21:54:08.101Z,99423.41
2023-06-30T21:56:40.966Z,99423.97
2023-06-30T21:59:11.260Z,99415.94
2023-06-30T22:01:42.382Z,99421.47
2023-06-30T22:04:13.345Z,99414.13
2023-06-30T22:06:43.805Z,99416.63
2023-06-30T22:09:16.262Z,99413.03
2023-06-30T22:11:49.657Z,99416.00
2023-06-30T22:14:20.130Z,99419.00
2023-06-30T22:16:50.408Z,99405.66
2023-06-30T22:19:20.789Z,99407.78
2023-06-30T22:21:51.291Z,99409.78
2023-06-30T22:24:21.614Z,99403.72
2023-06-30T22:26:54.538Z,99406.72
2023-06-30T22:29:24.950Z,99405.66
2023-06-30T22:31:55.365Z,99399.31
2023-06-30T22:34:26.052Z,99407.06
2023-06-30T22:36:56.392Z,99396.00
2023-06-30T22:39:26.706Z,99401.00
2023-06-30T22:41:59.596Z,99393.50
2023-06-30T22:44:29.918Z,99392.59
2023-06-30T22:47:00.343Z,99395.41
2023-06-30T22:49:30.714Z,99396.00
2023-06-30T22:52:01.080Z,99391.63
2023-06-30T22:54:31.445Z,99394.25
2023-06-30T22:57:04.564Z,99403.06
2023-06-30T22:59:34.901Z,99394.59
2023-06-30T23:02:05.922Z,99402.25
2023-06-30T23:04:36.452Z,99394.59
2023-06-30T23:07:07.911Z,99391.09
2023-06-30T23:09:38.401Z,99392.44
2023-06-30T23:12:12.706Z,99393.16
2023-06-30T23:14:44.196Z,99390.44
2023-06-30T23:17:16.690Z,99385.94
2023-06-30T23:19:49.494Z,99385.81
2023-06-30T23:22:20.310Z,99388.88
2023-06-30T23:24:51.762Z,99389.59
2023-06-30T23:27:28.859Z,99385.47
2023-06-30T23:29:59.780Z,99381.63
2023-06-30T23:32:30.268Z,99385.22
2023-06-30T23:35:00.595Z,99383.22
2023-06-30T23:37:30.993Z,99378.31
2023-06-30T23:40:01.328Z,99381.28
2023-06-30T23:42:34.191Z,99372.84
2023-06-30T23:45:04.534Z,99372.84
2023-06-30T23:47:34.857Z,99364.56
2023-06-30T23:50:05.226Z,99368.84
2023-06-30T23:52:35.598Z,99360.06
2023-06-30T23:55:06.689Z,99359.72
2023-06-30T23:57:39.536Z,99350.28
